sensor_id;sensor_type;location;lat;lon;timestamp;P1;durP1;ratioP1;P2;durP2;ratioP2
58978;SDS011;44763;50.464;30.612;2022-07-22T00:00:41;1.27;;;1.17;;
58978;SDS011;44763;50.464;30.612;2022-07-22T00:03:07;2.30;;;1.77;;
58978;SDS011;44763;50.464;30.612;2022-07-22T00:05:34;1.10;;;1.00;;
58978;SDS011;44763;50.464;30.612;2022-07-22T00:08:02;1.40;;;1.35;;
58978;SDS011;44763;50.464;30.612;2022-07-22T00:10:32;0.95;;;0.95;;
58978;SDS011;44763;50.464;30.612;2022-07-22T00:15:24;3.05;;;0.90;;
58978;SDS011;44763;50.464;30.612;2022-07-22T00:17:51;1.65;;;1.55;;
58978;SDS011;44763;50.464;30.612;2022-07-22T00:22:44;1.87;;;1.22;;
58978;SDS011;44763;50.464;30.612;2022-07-22T00:25:11;2.37;;;1.27;;
58978;SDS011;44763;50.464;30.612;2022-07-22T00:27:38;1.98;;;1.85;;
58978;SDS011;44763;50.464;30.612;2022-07-22T00:30:05;2.95;;;1.75;;
58978;SDS011;44763;50.464;30.612;2022-07-22T00:32:33;2.08;;;1.98;;
58978;SDS011;44763;50.464;30.612;2022-07-22T00:37:26;1.85;;;1.75;;
58978;SDS011;44763;50.464;30.612;2022-07-22T00:39:53;2.60;;;2.12;;
58978;SDS011;44763;50.464;30.612;2022-07-22T00:42:19;2.85;;;2.45;;
58978;SDS011;44763;50.464;30.612;2022-07-22T00:47:12;2.25;;;2.15;;
58978;SDS011;44763;50.464;30.612;2022-07-22T00:52:04;2.67;;;2.47;;
58978;SDS011;44763;50.464;30.612;2022-07-22T00:54:31;4.20;;;2.27;;
58978;SDS011;44763;50.464;30.612;2022-07-22T00:56:58;3.35;;;1.85;;
58978;SDS011;44763;50.464;30.612;2022-07-22T00:59:25;2.62;;;2.27;;
58978;SDS011;44763;50.464;30.612;2022-07-22T01:01:52;2.87;;;2.37;;
58978;SDS011;44763;50.464;30.612;2022-07-22T01:06:44;3.20;;;3.00;;
58978;SDS011;44763;50.464;30.612;2022-07-22T01:09:11;3.10;;;2.17;;
58978;SDS011;44763;50.464;30.612;2022-07-22T01:11:39;2.67;;;2.47;;
58978;SDS011;44763;50.464;30.612;2022-07-22T01:14:07;2.77;;;2.67;;
58978;SDS011;44763;50.464;30.612;2022-07-22T01:16:35;5.50;;;2.62;;
58978;SDS011;44763;50.464;30.612;2022-07-22T01:19:02;3.08;;;2.45;;
58978;SDS011;44763;50.464;30.612;2022-07-22T01:21:29;2.83;;;2.55;;
58978;SDS011;44763;50.464;30.612;2022-07-22T01:23:57;3.40;;;3.12;;
58978;SDS011;44763;50.464;30.612;2022-07-22T01:26:24;3.35;;;2.77;;
58978;SDS011;44763;50.464;30.612;2022-07-22T01:28:51;2.20;;;1.85;;
58978;SDS011;44763;50.464;30.612;2022-07-22T01:31:18;2.02;;;1.92;;
58978;SDS011;44763;50.464;30.612;2022-07-22T01:33:44;2.60;;;2.47;;
58978;SDS011;44763;50.464;30.612;2022-07-22T01:36:12;3.15;;;2.77;;
58978;SDS011;44763;50.464;30.612;2022-07-22T01:38:38;2.00;;;1.90;;
58978;SDS011;44763;50.464;30.612;2022-07-22T01:41:05;3.00;;;2.45;;
58978;SDS011;44763;50.464;30.612;2022-07-22T01:43:32;2.58;;;2.02;;
58978;SDS011;44763;50.464;30.612;2022-07-22T01:45:59;6.42;;;2.30;;
58978;SDS011;44763;50.464;30.612;2022-07-22T01:48:26;2.45;;;2.10;;
58978;SDS011;44763;50.464;30.612;2022-07-22T01:50:53;2.50;;;2.30;;
58978;SDS011;44763;50.464;30.612;2022-07-22T01:53:19;1.98;;;1.87;;
58978;SDS011;44763;50.464;30.612;2022-07-22T01:55:46;2.62;;;2.52;;
58978;SDS011;44763;50.464;30.612;2022-07-22T01:58:13;2.55;;;2.35;;
58978;SDS011;44763;50.464;30.612;2022-07-22T02:00:39;4.53;;;2.52;;
58978;SDS011;44763;50.464;30.612;2022-07-22T02:03:07;2.90;;;2.80;;
58978;SDS011;44763;50.464;30.612;2022-07-22T02:05:33;2.95;;;2.75;;
58978;SDS011;44763;50.464;30.612;2022-07-22T02:08:06;2.58;;;2.35;;
58978;SDS011;44763;50.464;30.612;2022-07-22T02:10:34;4.25;;;2.47;;
58978;SDS011;44763;50.464;30.612;2022-07-22T02:13:02;2.45;;;2.25;;
58978;SDS011;44763;50.464;30.612;2022-07-22T02:15:29;5.75;;;2.70;;
58978;SDS011;44763;50.464;30.612;2022-07-22T02:17:56;3.58;;;3.27;;
58978;SDS011;44763;50.464;30.612;2022-07-22T02:20:22;3.27;;;2.80;;
58978;SDS011;44763;50.464;30.612;2022-07-22T02:22:51;3.27;;;2.90;;
58978;SDS011;44763;50.464;30.612;2022-07-22T02:25:17;4.65;;;2.25;;
58978;SDS011;44763;50.464;30.612;2022-07-22T02:30:11;3.75;;;3.10;;
58978;SDS011;44763;50.464;30.612;2022-07-22T02:32:38;3.45;;;3.15;;
58978;SDS011;44763;50.464;30.612;2022-07-22T02:35:05;2.90;;;2.70;;
58978;SDS011;44763;50.464;30.612;2022-07-22T02:37:33;3.10;;;2.90;;
58978;SDS011;44763;50.464;30.612;2022-07-22T02:40:00;3.15;;;2.87;;
58978;SDS011;44763;50.464;30.612;2022-07-22T02:42:28;2.95;;;2.75;;
58978;SDS011;44763;50.464;30.612;2022-07-22T02:44:54;3.50;;;3.15;;
58978;SDS011;44763;50.464;30.612;2022-07-22T02:47:20;3.35;;;3.05;;
58978;SDS011;44763;50.464;30.612;2022-07-22T02:49:47;3.52;;;3.33;;
58978;SDS011;44763;50.464;30.612;2022-07-22T02:52:15;3.85;;;3.37;;
58978;SDS011;44763;50.464;30.612;2022-07-22T02:54:42;5.25;;;3.08;;
58978;SDS011;44763;50.464;30.612;2022-07-22T02:57:09;3.62;;;3.42;;
58978;SDS011;44763;50.464;30.612;2022-07-22T02:59:35;3.92;;;3.02;;
58978;SDS011;44763;50.464;30.612;2022-07-22T03:02:02;2.90;;;2.70;;
58978;SDS011;44763;50.464;30.612;2022-07-22T03:04:30;4.53;;;3.12;;
58978;SDS011;44763;50.464;30.612;2022-07-22T03:06:56;2.62;;;2.40;;
58978;SDS011;44763;50.464;30.612;2022-07-22T03:09:23;6.95;;;3.87;;
58978;SDS011;44763;50.464;30.612;2022-07-22T03:11:49;3.02;;;2.20;;
58978;SDS011;44763;50.464;30.612;2022-07-22T03:14:16;2.75;;;2.55;;
58978;SDS011;44763;50.464;30.612;2022-07-22T03:16:44;2.95;;;2.52;;
58978;SDS011;44763;50.464;30.612;2022-07-22T03:19:11;4.37;;;2.50;;
58978;SDS011;44763;50.464;30.612;2022-07-22T03:21:39;4.33;;;2.08;;
58978;SDS011;44763;50.464;30.612;2022-07-22T03:24:06;4.50;;;2.55;;
58978;SDS011;44763;50.464;30.612;2022-07-22T03:26:35;2.77;;;2.52;;
58978;SDS011;44763;50.464;30.612;2022-07-22T03:29:01;2.87;;;2.40;;
58978;SDS011;44763;50.464;30.612;2022-07-22T03:31:28;2.47;;;2.30;;
58978;SDS011;44763;50.464;30.612;2022-07-22T03:33:55;2.37;;;1.92;;
58978;SDS011;44763;50.464;30.612;2022-07-22T03:36:21;2.80;;;1.67;;
58978;SDS011;44763;50.464;30.612;2022-07-22T03:38:51;2.55;;;1.60;;
58978;SDS011;44763;50.464;30.612;2022-07-22T03:41:17;1.90;;;1.80;;
58978;SDS011;44763;50.464;30.612;2022-07-22T03:43:43;3.83;;;1.98;;
58978;SDS011;44763;50.464;30.612;2022-07-22T03:46:11;1.80;;;1.70;;
58978;SDS011;44763;50.464;30.612;2022-07-22T03:48:38;1.85;;;1.75;;
58978;SDS011;44763;50.464;30.612;2022-07-22T03:51:04;3.17;;;2.22;;
58978;SDS011;44763;50.464;30.612;2022-07-22T03:53:31;1.45;;;1.35;;
58978;SDS011;44763;50.464;30.612;2022-07-22T03:56:00;2.42;;;2.27;;
58978;SDS011;44763;50.464;30.612;2022-07-22T03:58:28;2.02;;;1.52;;
58978;SDS011;44763;50.464;30.612;2022-07-22T04:00:54;2.15;;;1.95;;
58978;SDS011;44763;50.464;30.612;2022-07-22T04:03:21;2.02;;;1.65;;
58978;SDS011;44763;50.464;30.612;2022-07-22T04:05:52;1.80;;;1.70;;
58978;SDS011;44763;50.464;30.612;2022-07-22T04:08:21;3.27;;;2.98;;
58978;SDS011;44763;50.464;30.612;2022-07-22T04:10:49;2.02;;;1.92;;
58978;SDS011;44763;50.464;30.612;2022-07-22T04:13:15;2.47;;;2.27;;
58978;SDS011;44763;50.464;30.612;2022-07-22T04:15:43;2.15;;;2.00;;
58978;SDS011;44763;50.464;30.612;2022-07-22T04:18:11;4.33;;;2.67;;
58978;SDS011;44763;50.464;30.612;2022-07-22T04:20:37;2.12;;;1.87;;
58978;SDS011;44763;50.464;30.612;2022-07-22T04:23:14;1.85;;;1.80;;
58978;SDS011;44763;50.464;30.612;2022-07-22T04:25:40;2.40;;;2.30;;
58978;SDS011;44763;50.464;30.612;2022-07-22T04:28:06;4.03;;;2.60;;
58978;SDS011;44763;50.464;30.612;2022-07-22T04:30:33;3.80;;;2.22;;
58978;SDS011;44763;50.464;30.612;2022-07-22T04:32:59;4.05;;;2.83;;
58978;SDS011;44763;50.464;30.612;2022-07-22T04:35:26;2.55;;;2.35;;
58978;SDS011;44763;50.464;30.612;2022-07-22T04:37:54;2.22;;;2.02;;
58978;SDS011;44763;50.464;30.612;2022-07-22T04:40:21;3.33;;;2.10;;
58978;SDS011;44763;50.464;30.612;2022-07-22T04:42:48;1.92;;;1.82;;
58978;SDS011;44763;50.464;30.612;2022-07-22T04:45:14;2.52;;;2.33;;
58978;SDS011;44763;50.464;30.612;2022-07-22T04:47:40;2.15;;;2.05;;
58978;SDS011;44763;50.464;30.612;2022-07-22T04:50:07;1.50;;;1.50;;
58978;SDS011;44763;50.464;30.612;2022-07-22T04:52:34;3.33;;;1.65;;
58978;SDS011;44763;50.464;30.612;2022-07-22T04:55:00;2.92;;;1.75;;
58978;SDS011;44763;50.464;30.612;2022-07-22T04:57:26;1.27;;;1.27;;
58978;SDS011;44763;50.464;30.612;2022-07-22T04:59:55;2.00;;;1.50;;
58978;SDS011;44763;50.464;30.612;2022-07-22T05:02:21;1.98;;;1.85;;
58978;SDS011;44763;50.464;30.612;2022-07-22T05:04:47;1.70;;;1.65;;
58978;SDS011;44763;50.464;30.612;2022-07-22T05:07:14;1.95;;;1.85;;
58978;SDS011;44763;50.464;30.612;2022-07-22T05:09:43;3.72;;;2.00;;
58978;SDS011;44763;50.464;30.612;2022-07-22T05:12:11;3.20;;;2.27;;
58978;SDS011;44763;50.464;30.612;2022-07-22T05:14:38;4.60;;;2.65;;
58978;SDS011;44763;50.464;30.612;2022-07-22T05:17:09;1.60;;;1.50;;
58978;SDS011;44763;50.464;30.612;2022-07-22T05:19:39;2.42;;;2.00;;
58978;SDS011;44763;50.464;30.612;2022-07-22T05:22:07;2.10;;;2.00;;
58978;SDS011;44763;50.464;30.612;2022-07-22T05:24:34;2.45;;;2.25;;
58978;SDS011;44763;50.464;30.612;2022-07-22T05:27:02;3.08;;;2.85;;
58978;SDS011;44763;50.464;30.612;2022-07-22T05:29:30;2.60;;;2.40;;
58978;SDS011;44763;50.464;30.612;2022-07-22T05:31:56;3.10;;;2.90;;
58978;SDS011;44763;50.464;30.612;2022-07-22T05:34:24;4.22;;;3.77;;
58978;SDS011;44763;50.464;30.612;2022-07-22T05:36:52;7.20;;;4.87;;
58978;SDS011;44763;50.464;30.612;2022-07-22T05:39:19;3.25;;;3.05;;
58978;SDS011;44763;50.464;30.612;2022-07-22T05:41:45;2.05;;;1.85;;
58978;SDS011;44763;50.464;30.612;2022-07-22T05:44:13;5.53;;;2.85;;
58978;SDS011;44763;50.464;30.612;2022-07-22T05:46:39;2.90;;;1.70;;
58978;SDS011;44763;50.464;30.612;2022-07-22T05:49:06;2.08;;;2.00;;
58978;SDS011;44763;50.464;30.612;2022-07-22T05:51:36;5.58;;;2.45;;
58978;SDS011;44763;50.464;30.612;2022-07-22T05:54:02;3.50;;;3.17;;
58978;SDS011;44763;50.464;30.612;2022-07-22T05:56:30;3.45;;;3.25;;
58978;SDS011;44763;50.464;30.612;2022-07-22T05:58:56;4.75;;;3.50;;
58978;SDS011;44763;50.464;30.612;2022-07-22T06:01:23;2.75;;;2.42;;
58978;SDS011;44763;50.464;30.612;2022-07-22T06:03:50;2.80;;;2.60;;
58978;SDS011;44763;50.464;30.612;2022-07-22T06:06:17;2.85;;;2.65;;
58978;SDS011;44763;50.464;30.612;2022-07-22T06:08:43;3.47;;;2.80;;
58978;SDS011;44763;50.464;30.612;2022-07-22T06:11:10;2.20;;;2.00;;
58978;SDS011;44763;50.464;30.612;2022-07-22T06:13:38;2.52;;;2.42;;
58978;SDS011;44763;50.464;30.612;2022-07-22T06:16:04;3.35;;;2.45;;
58978;SDS011;44763;50.464;30.612;2022-07-22T06:18:32;5.17;;;2.70;;
58978;SDS011;44763;50.464;30.612;2022-07-22T06:20:59;3.80;;;1.70;;
58978;SDS011;44763;50.464;30.612;2022-07-22T06:23:26;1.77;;;1.55;;
58978;SDS011;44763;50.464;30.612;2022-07-22T06:25:54;3.87;;;1.95;;
58978;SDS011;44763;50.464;30.612;2022-07-22T06:28:24;3.00;;;2.42;;
58978;SDS011;44763;50.464;30.612;2022-07-22T06:30:50;7.87;;;4.75;;
58978;SDS011;44763;50.464;30.612;2022-07-22T06:33:17;3.15;;;3.05;;
58978;SDS011;44763;50.464;30.612;2022-07-22T06:35:44;3.15;;;2.60;;
58978;SDS011;44763;50.464;30.612;2022-07-22T06:38:10;3.47;;;1.80;;
58978;SDS011;44763;50.464;30.612;2022-07-22T06:40:47;4.17;;;1.60;;
58978;SDS011;44763;50.464;30.612;2022-07-22T06:43:30;4.53;;;2.00;;
58978;SDS011;44763;50.464;30.612;2022-07-22T06:46:05;6.28;;;5.87;;
58978;SDS011;44763;50.464;30.612;2022-07-22T06:48:33;3.25;;;2.55;;
58978;SDS011;44763;50.464;30.612;2022-07-22T06:51:00;4.30;;;1.67;;
58978;SDS011;44763;50.464;30.612;2022-07-22T06:53:26;3.12;;;2.37;;
58978;SDS011;44763;50.464;30.612;2022-07-22T06:55:52;5.33;;;1.60;;
58978;SDS011;44763;50.464;30.612;2022-07-22T06:58:19;1.85;;;1.70;;
58978;SDS011;44763;50.464;30.612;2022-07-22T07:00:45;1.72;;;1.50;;
58978;SDS011;44763;50.464;30.612;2022-07-22T07:03:26;1.90;;;1.40;;
58978;SDS011;44763;50.464;30.612;2022-07-22T07:05:56;3.27;;;1.62;;
58978;SDS011;44763;50.464;30.612;2022-07-22T07:08:24;4.00;;;1.57;;
58978;SDS011;44763;50.464;30.612;2022-07-22T07:10:50;2.08;;;1.30;;
58978;SDS011;44763;50.464;30.612;2022-07-22T07:13:16;2.08;;;1.87;;
58978;SDS011;44763;50.464;30.612;2022-07-22T07:15:44;1.55;;;1.30;;
58978;SDS011;44763;50.464;30.612;2022-07-22T07:18:11;4.20;;;2.55;;
58978;SDS011;44763;50.464;30.612;2022-07-22T07:20:37;4.08;;;3.40;;
58978;SDS011;44763;50.464;30.612;2022-07-22T07:23:05;2.65;;;1.75;;
58978;SDS011;44763;50.464;30.612;2022-07-22T07:25:33;4.70;;;2.00;;
58978;SDS011;44763;50.464;30.612;2022-07-22T07:28:00;1.52;;;1.50;;
58978;SDS011;44763;50.464;30.612;2022-07-22T07:30:35;3.05;;;1.67;;
58978;SDS011;44763;50.464;30.612;2022-07-22T07:33:02;3.50;;;2.55;;
58978;SDS011;44763;50.464;30.612;2022-07-22T07:35:29;4.10;;;1.07;;
58978;SDS011;44763;50.464;30.612;2022-07-22T07:37:55;0.98;;;0.88;;
58978;SDS011;44763;50.464;30.612;2022-07-22T07:40:23;3.42;;;3.12;;
58978;SDS011;44763;50.464;30.612;2022-07-22T07:42:51;2.60;;;0.70;;
58978;SDS011;44763;50.464;30.612;2022-07-22T07:45:26;1.32;;;1.22;;
58978;SDS011;44763;50.464;30.612;2022-07-22T07:47:53;11.68;;;2.35;;
58978;SDS011;44763;50.464;30.612;2022-07-22T07:50:19;4.17;;;0.50;;
58978;SDS011;44763;50.464;30.612;2022-07-22T07:52:45;3.37;;;0.62;;
58978;SDS011;44763;50.464;30.612;2022-07-22T07:55:13;2.62;;;1.40;;
58978;SDS011;44763;50.464;30.612;2022-07-22T07:57:41;0.53;;;0.53;;
58978;SDS011;44763;50.464;30.612;2022-07-22T08:00:11;3.25;;;0.60;;
58978;SDS011;44763;50.464;30.612;2022-07-22T08:02:41;5.12;;;0.60;;
58978;SDS011;44763;50.464;30.612;2022-07-22T08:05:09;1.75;;;0.80;;
58978;SDS011;44763;50.464;30.612;2022-07-22T08:07:37;3.62;;;1.20;;
58978;SDS011;44763;50.464;30.612;2022-07-22T08:10:05;1.50;;;0.45;;
58978;SDS011;44763;50.464;30.612;2022-07-22T08:12:52;1.27;;;0.35;;
58978;SDS011;44763;50.464;30.612;2022-07-22T08:15:29;1.82;;;0.88;;
58978;SDS011;44763;50.464;30.612;2022-07-22T08:17:59;0.80;;;0.80;;
58978;SDS011;44763;50.464;30.612;2022-07-22T08:20:26;2.22;;;0.30;;
58978;SDS011;44763;50.464;30.612;2022-07-22T08:22:56;1.37;;;0.28;;
58978;SDS011;44763;50.464;30.612;2022-07-22T08:25:24;2.15;;;0.78;;
58978;SDS011;44763;50.464;30.612;2022-07-22T08:27:51;1.80;;;0.75;;
58978;SDS011;44763;50.464;30.612;2022-07-22T08:30:18;0.88;;;0.40;;
58978;SDS011;44763;50.464;30.612;2022-07-22T08:32:46;1.40;;;0.30;;
58978;SDS011;44763;50.464;30.612;2022-07-22T08:35:14;0.93;;;0.30;;
58978;SDS011;44763;50.464;30.612;2022-07-22T08:37:43;1.12;;;0.45;;
58978;SDS011;44763;50.464;30.612;2022-07-22T08:40:11;0.82;;;0.82;;
58978;SDS011;44763;50.464;30.612;2022-07-22T08:42:39;3.10;;;0.50;;
58978;SDS011;44763;50.464;30.612;2022-07-22T08:45:09;1.80;;;1.35;;
58978;SDS011;44763;50.464;30.612;2022-07-22T08:47:36;0.85;;;0.20;;
58978;SDS011;44763;50.464;30.612;2022-07-22T08:50:09;0.90;;;0.88;;
58978;SDS011;44763;50.464;30.612;2022-07-22T08:52:39;2.05;;;0.30;;
58978;SDS011;44763;50.464;30.612;2022-07-22T08:55:06;3.37;;;1.57;;
58978;SDS011;44763;50.464;30.612;2022-07-22T08:57:35;2.55;;;0.33;;
58978;SDS011;44763;50.464;30.612;2022-07-22T09:00:11;4.03;;;0.65;;
58978;SDS011;44763;50.464;30.612;2022-07-22T09:02:46;0.85;;;0.47;;
58978;SDS011;44763;50.464;30.612;2022-07-22T09:05:15;2.83;;;0.40;;
58978;SDS011;44763;50.464;30.612;2022-07-22T09:07:45;1.98;;;0.70;;
58978;SDS011;44763;50.464;30.612;2022-07-22T09:10:15;1.85;;;0.50;;
58978;SDS011;44763;50.464;30.612;2022-07-22T09:13:07;4.75;;;0.72;;
58978;SDS011;44763;50.464;30.612;2022-07-22T09:15:47;1.45;;;0.40;;
58978;SDS011;44763;50.464;30.612;2022-07-22T09:18:27;4.28;;;0.53;;
58978;SDS011;44763;50.464;30.612;2022-07-22T09:21:01;5.78;;;0.65;;
58978;SDS011;44763;50.464;30.612;2022-07-22T09:23:38;2.20;;;0.35;;
58978;SDS011;44763;50.464;30.612;2022-07-22T09:26:08;1.75;;;0.35;;
58978;SDS011;44763;50.464;30.612;2022-07-22T09:28:55;1.10;;;0.70;;
58978;SDS011;44763;50.464;30.612;2022-07-22T09:31:35;1.22;;;0.33;;
58978;SDS011;44763;50.464;30.612;2022-07-22T09:34:10;0.93;;;0.80;;
58978;SDS011;44763;50.464;30.612;2022-07-22T09:36:53;6.40;;;0.50;;
58978;SDS011;44763;50.464;30.612;2022-07-22T09:39:25;3.55;;;0.50;;
58978;SDS011;44763;50.464;30.612;2022-07-22T09:41:57;1.40;;;0.30;;
58978;SDS011;44763;50.464;30.612;2022-07-22T09:44:28;4.47;;;0.25;;
58978;SDS011;44763;50.464;30.612;2022-07-22T09:46:56;0.78;;;0.30;;
58978;SDS011;44763;50.464;30.612;2022-07-22T09:49:32;1.15;;;0.20;;
58978;SDS011;44763;50.464;30.612;2022-07-22T09:52:19;1.90;;;0.28;;
58978;SDS011;44763;50.464;30.612;2022-07-22T09:54:54;0.90;;;0.10;;
58978;SDS011;44763;50.464;30.612;2022-07-22T09:57:21;0.85;;;0.40;;
58978;SDS011;44763;50.464;30.612;2022-07-22T09:59:48;1.60;;;0.20;;
58978;SDS011;44763;50.464;30.612;2022-07-22T10:02:34;2.87;;;1.47;;
58978;SDS011;44763;50.464;30.612;2022-07-22T10:05:06;1.60;;;0.25;;
58978;SDS011;44763;50.464;30.612;2022-07-22T10:07:39;0.55;;;0.30;;
58978;SDS011;44763;50.464;30.612;2022-07-22T10:10:09;0.35;;;0.20;;
58978;SDS011;44763;50.464;30.612;2022-07-22T10:12:40;1.57;;;0.35;;
58978;SDS011;44763;50.464;30.612;2022-07-22T10:15:07;0.72;;;0.25;;
58978;SDS011;44763;50.464;30.612;2022-07-22T10:17:38;2.58;;;1.27;;
58978;SDS011;44763;50.464;30.612;2022-07-22T10:22:44;1.30;;;0.10;;
58978;SDS011;44763;50.464;30.612;2022-07-22T10:25:23;0.45;;;0.20;;
58978;SDS011;44763;50.464;30.612;2022-07-22T10:27:57;1.82;;;0.23;;
58978;SDS011;44763;50.464;30.612;2022-07-22T10:33:09;8.20;;;1.50;;
58978;SDS011;44763;50.464;30.612;2022-07-22T10:38:21;0.75;;;0.40;;
58978;SDS011;44763;50.464;30.612;2022-07-22T10:40:49;2.40;;;0.20;;
58978;SDS011;44763;50.464;30.612;2022-07-22T10:43:53;2.72;;;0.20;;
58978;SDS011;44763;50.464;30.612;2022-07-22T10:46:13;0.80;;;0.68;;
58978;SDS011;44763;50.464;30.612;2022-07-22T10:51:18;0.20;;;0.20;;
58978;SDS011;44763;50.464;30.612;2022-07-22T10:56:31;1.85;;;0.10;;
58978;SDS011;44763;50.464;30.612;2022-07-22T10:59:08;1.40;;;0.20;;
58978;SDS011;44763;50.464;30.612;2022-07-22T11:01:41;1.47;;;0.20;;
58978;SDS011;44763;50.464;30.612;2022-07-22T11:06:52;1.77;;;0.30;;
58978;SDS011;44763;50.464;30.612;2022-07-22T11:09:22;1.00;;;0.30;;
58978;SDS011;44763;50.464;30.612;2022-07-22T11:11:59;1.32;;;0.20;;
58978;SDS011;44763;50.464;30.612;2022-07-22T11:14:27;1.70;;;0.30;;
58978;SDS011;44763;50.464;30.612;2022-07-22T11:16:57;1.52;;;0.20;;
58978;SDS011;44763;50.464;30.612;2022-07-22T11:19:27;1.85;;;0.10;;
58978;SDS011;44763;50.464;30.612;2022-07-22T11:21:57;0.30;;;0.10;;
58978;SDS011;44763;50.464;30.612;2022-07-22T11:24:33;1.17;;;0.20;;
58978;SDS011;44763;50.464;30.612;2022-07-22T11:28:54;2.58;;;0.10;;
58978;SDS011;44763;50.464;30.612;2022-07-22T11:31:21;1.90;;;0.10;;
58978;SDS011;44763;50.464;30.612;2022-07-22T11:33:47;3.50;;;0.20;;
58978;SDS011;44763;50.464;30.612;2022-07-22T11:36:14;0.75;;;0.10;;
58978;SDS011;44763;50.464;30.612;2022-07-22T11:41:18;0.30;;;0.10;;
58978;SDS011;44763;50.464;30.612;2022-07-22T11:43:46;2.62;;;0.10;;
58978;SDS011;44763;50.464;30.612;2022-07-22T11:46:15;0.60;;;0.30;;
58978;SDS011;44763;50.464;30.612;2022-07-22T11:48:45;3.40;;;0.20;;
58978;SDS011;44763;50.464;30.612;2022-07-22T11:51:11;4.95;;;0.10;;
58978;SDS011;44763;50.464;30.612;2022-07-22T11:53:40;1.75;;;0.10;;
58978;SDS011;44763;50.464;30.612;2022-07-22T11:56:08;0.30;;;0.20;;
58978;SDS011;44763;50.464;30.612;2022-07-22T12:01:11;0.37;;;0.10;;
58978;SDS011;44763;50.464;30.612;2022-07-22T12:03:42;2.05;;;0.17;;
58978;SDS011;44763;50.464;30.612;2022-07-22T12:06:15;0.78;;;0.37;;
58978;SDS011;44763;50.464;30.612;2022-07-22T12:08:49;0.33;;;0.10;;
58978;SDS011;44763;50.464;30.612;2022-07-22T12:11:16;0.45;;;0.15;;
58978;SDS011;44763;50.464;30.612;2022-07-22T12:13:45;0.40;;;0.20;;
58978;SDS011;44763;50.464;30.612;2022-07-22T12:16:19;1.37;;;0.10;;
58978;SDS011;44763;50.464;30.612;2022-07-22T12:18:56;0.42;;;0.20;;
58978;SDS011;44763;50.464;30.612;2022-07-22T12:21:30;0.23;;;0.20;;
58978;SDS011;44763;50.464;30.612;2022-07-22T12:24:04;0.62;;;0.10;;
58978;SDS011;44763;50.464;30.612;2022-07-22T12:29:15;1.02;;;0.10;;
58978;SDS011;44763;50.464;30.612;2022-07-22T12:31:49;0.20;;;0.20;;
58978;SDS011;44763;50.464;30.612;2022-07-22T12:34:36;1.87;;;0.10;;
58978;SDS011;44763;50.464;30.612;2022-07-22T12:37:14;1.12;;;0.20;;
58978;SDS011;44763;50.464;30.612;2022-07-22T12:42:30;2.37;;;0.10;;
58978;SDS011;44763;50.464;30.612;2022-07-22T12:45:01;1.45;;;0.15;;
58978;SDS011;44763;50.464;30.612;2022-07-22T12:50:32;3.77;;;0.20;;
58978;SDS011;44763;50.464;30.612;2022-07-22T12:53:08;0.72;;;0.10;;
58978;SDS011;44763;50.464;30.612;2022-07-22T12:55:42;2.12;;;0.10;;
58978;SDS011;44763;50.464;30.612;2022-07-22T12:58:14;2.00;;;0.10;;
58978;SDS011;44763;50.464;30.612;2022-07-22T13:00:45;0.10;;;0.10;;
58978;SDS011;44763;50.464;30.612;2022-07-22T13:03:14;7.75;;;0.30;;
58978;SDS011;44763;50.464;30.612;2022-07-22T13:05:43;0.10;;;0.10;;
58978;SDS011;44763;50.464;30.612;2022-07-22T13:08:09;1.75;;;1.65;;
58978;SDS011;44763;50.464;30.612;2022-07-22T13:10:35;1.12;;;0.10;;
58978;SDS011;44763;50.464;30.612;2022-07-22T13:13:02;0.20;;;0.10;;
58978;SDS011;44763;50.464;30.612;2022-07-22T13:15:30;0.30;;;0.10;;
58978;SDS011;44763;50.464;30.612;2022-07-22T13:17:57;3.12;;;0.10;;
58978;SDS011;44763;50.464;30.612;2022-07-22T13:20:24;2.70;;;0.10;;
58978;SDS011;44763;50.464;30.612;2022-07-22T13:22:51;0.30;;;0.17;;
58978;SDS011;44763;50.464;30.612;2022-07-22T13:25:17;0.20;;;0.10;;
58978;SDS011;44763;50.464;30.612;2022-07-22T13:27:44;0.10;;;0.10;;
58978;SDS011;44763;50.464;30.612;2022-07-22T13:30:10;0.55;;;0.10;;
58978;SDS011;44763;50.464;30.612;2022-07-22T13:32:38;1.55;;;0.10;;
58978;SDS011;44763;50.464;30.612;2022-07-22T13:35:06;0.82;;;0.10;;
58978;SDS011;44763;50.464;30.612;2022-07-22T13:37:35;0.15;;;0.10;;
58978;SDS011;44763;50.464;30.612;2022-07-22T13:40:02;1.20;;;0.10;;
58978;SDS011;44763;50.464;30.612;2022-07-22T13:42:30;0.80;;;0.10;;
58978;SDS011;44763;50.464;30.612;2022-07-22T13:44:57;0.10;;;0.10;;
58978;SDS011;44763;50.464;30.612;2022-07-22T13:47:23;2.25;;;0.47;;
58978;SDS011;44763;50.464;30.612;2022-07-22T13:49:52;0.25;;;0.10;;
58978;SDS011;44763;50.464;30.612;2022-07-22T13:52:19;0.20;;;0.10;;
58978;SDS011;44763;50.464;30.612;2022-07-22T13:54:45;7.20;;;0.30;;
58978;SDS011;44763;50.464;30.612;2022-07-22T13:57:12;1.95;;;0.10;;
58978;SDS011;44763;50.464;30.612;2022-07-22T13:59:38;1.05;;;0.10;;
58978;SDS011;44763;50.464;30.612;2022-07-22T14:02:05;0.93;;;0.10;;
58978;SDS011;44763;50.464;30.612;2022-07-22T14:04:31;2.72;;;0.37;;
58978;SDS011;44763;50.464;30.612;2022-07-22T14:06:57;1.10;;;0.20;;
58978;SDS011;44763;50.464;30.612;2022-07-22T14:09:24;2.30;;;0.10;;
58978;SDS011;44763;50.464;30.612;2022-07-22T14:11:51;2.42;;;0.10;;
58978;SDS011;44763;50.464;30.612;2022-07-22T14:14:17;0.42;;;0.10;;
58978;SDS011;44763;50.464;30.612;2022-07-22T14:16:44;2.33;;;0.40;;
58978;SDS011;44763;50.464;30.612;2022-07-22T14:19:12;0.20;;;0.10;;
58978;SDS011;44763;50.464;30.612;2022-07-22T14:21:43;1.52;;;0.20;;
58978;SDS011;44763;50.464;30.612;2022-07-22T14:24:11;0.37;;;0.10;;
58978;SDS011;44763;50.464;30.612;2022-07-22T14:26:38;2.30;;;0.10;;
58978;SDS011;44763;50.464;30.612;2022-07-22T14:29:08;0.10;;;0.10;;
58978;SDS011;44763;50.464;30.612;2022-07-22T14:31:35;0.10;;;0.10;;
58978;SDS011;44763;50.464;30.612;2022-07-22T14:34:01;0.88;;;0.03;;
58978;SDS011;44763;50.464;30.612;2022-07-22T14:36:28;2.37;;;0.10;;
58978;SDS011;44763;50.464;30.612;2022-07-22T14:38:55;0.53;;;0.10;;
58978;SDS011;44763;50.464;30.612;2022-07-22T14:41:22;2.30;;;0.10;;
58978;SDS011;44763;50.464;30.612;2022-07-22T14:43:48;2.72;;;0.10;;
58978;SDS011;44763;50.464;30.612;2022-07-22T14:46:15;0.53;;;0.10;;
58978;SDS011;44763;50.464;30.612;2022-07-22T14:48:42;2.67;;;0.15;;
58978;SDS011;44763;50.464;30.612;2022-07-22T14:51:10;1.50;;;0.10;;
58978;SDS011;44763;50.464;30.612;2022-07-22T14:53:36;0.90;;;0.10;;
58978;SDS011;44763;50.464;30.612;2022-07-22T14:56:03;1.62;;;0.20;;
58978;SDS011;44763;50.464;30.612;2022-07-22T14:58:30;1.07;;;0.53;;
58978;SDS011;44763;50.464;30.612;2022-07-22T15:00:56;1.55;;;0.20;;
58978;SDS011;44763;50.464;30.612;2022-07-22T15:03:23;0.47;;;0.30;;
58978;SDS011;44763;50.464;30.612;2022-07-22T15:05:50;3.10;;;0.17;;
58978;SDS011;44763;50.464;30.612;2022-07-22T15:08:16;0.23;;;0.10;;
58978;SDS011;44763;50.464;30.612;2022-07-22T15:10:44;0.05;;;0.00;;
58978;SDS011;44763;50.464;30.612;2022-07-22T15:13:10;0.10;;;0.10;;
58978;SDS011;44763;50.464;30.612;2022-07-22T15:15:37;0.37;;;0.10;;
58978;SDS011;44763;50.464;30.612;2022-07-22T15:18:03;1.62;;;0.10;;
58978;SDS011;44763;50.464;30.612;2022-07-22T15:20:31;0.30;;;0.20;;
58978;SDS011;44763;50.464;30.612;2022-07-22T15:22:58;0.13;;;0.10;;
58978;SDS011;44763;50.464;30.612;2022-07-22T15:25:24;0.70;;;0.10;;
58978;SDS011;44763;50.464;30.612;2022-07-22T15:27:51;0.53;;;0.10;;
58978;SDS011;44763;50.464;30.612;2022-07-22T15:30:18;0.33;;;0.20;;